Time,TemperatureF,DewpointF,PressureIn,WindDirection,WindDirectionDegrees,WindSpeedMPH,WindSpeedGustMPH,Humidity,HourlyPrecipIn,Conditions,Clouds,dailyrainin,SoftwareType,DateUTC
2013-05-17 00:01:00,47.2,39.3,30.06,WNW,298,0.0,1.0,74,0.00,,---,0.00,VWS V14.01,2013-05-17 04:01:00,
2013-05-17 00:02:00,47.2,39.3,30.06,WNW,298,0.0,3.0,74,0.00,,---,0.00,VWS V14.01,2013-05-17 04:02:00,
2013-05-17 00:07:00,46.8,39.3,30.05,WNW,298,0.0,0.0,75,0.00,,---,0.00,VWS V14.01,2013-05-17 04:07:00,
2013-05-17 00:12:00,46.4,39.3,30.06,WNW,298,0.0,0.0,76,0.00,,---,0.00,VWS V14.01,2013-05-17 04:12:00,
2013-05-17 00:17:00,46.1,39.3,30.06,WNW,298,1.0,3.0,77,0.00,,---,0.00,VWS V14.01,2013-05-17 04:17:00,
2013-05-17 00:22:00,45.8,39.0,30.06,WNW,297,2.0,4.0,77,0.00,,---,0.00,VWS V14.01,2013-05-17 04:22:00,
2013-05-17 00:27:00,45.5,39.0,30.06,WNW,296,1.0,1.0,78,0.00,,---,0.00,VWS V14.01,2013-05-17 04:27:00,
2013-05-17 00:32:00,45.3,38.9,30.06,WNW,297,2.0,3.0,78,0.00,,---,0.00,VWS V14.01,2013-05-17 04:32:00,
2013-05-17 00:37:00,45.0,38.9,30.06,WNW,297,0.0,3.0,79,0.00,,---,0.00,VWS V14.01,2013-05-17 04:37:00,
2013-05-17 00:42:00,44.9,38.8,30.06,WNW,296,0.0,2.0,79,0.00,,---,0.00,VWS V14.01,2013-05-17 04:42:00,
2013-05-17 00:47:00,44.8,38.7,30.06,WNW,296,0.0,0.0,79,0.00,,---,0.00,VWS V14.01,2013-05-17 04:47:00,
2013-05-17 00:52:00,44.7,38.9,30.06,WNW,296,3.0,4.0,80,0.00,,---,0.00,VWS V14.01,2013-05-17 04:52:00,
2013-05-17 00:57:00,44.5,38.7,30.06,NNW,331,3.0,4.0,80,0.00,,---,0.00,VWS V14.01,2013-05-17 04:57:00,
2013-05-17 01:02:00,44.5,38.7,30.06,NNW,338,3.0,4.0,80,0.00,,---,0.00,VWS V14.01,2013-05-17 05:02:00,
2013-05-17 01:07:00,44.2,38.8,30.06,NNW,338,2.0,3.0,81,0.00,,---,0.00,VWS V14.01,2013-05-17 05:07:00,
2013-05-17 01:12:00,43.9,38.5,30.06,NNW,338,1.0,3.0,81,0.00,,---,0.00,VWS V14.01,2013-05-17 05:12:00,
2013-05-17 01:17:00,43.7,38.6,30.06,NNW,338,0.0,2.0,82,0.00,,---,0.00,VWS V14.01,2013-05-17 05:17:00,
2013-05-17 01:22:00,43.5,38.7,30.06,NNW,337,0.0,2.0,83,0.00,,---,0.00,VWS V14.01,2013-05-17 05:22:00,
2013-05-17 01:27:00,43.1,38.3,30.06,NNW,338,0.0,0.0,83,0.00,,---,0.00,VWS V14.01,2013-05-17 05:27:00,
2013-05-17 01:32:00,43.1,38.6,30.06,NNW,344,3.0,4.0,84,0.00,,---,0.00,VWS V14.01,2013-05-17 05:32:00,
2013-05-17 01:37:00,43.6,39.1,30.06,NNW,344,3.0,4.0,84,0.00,,---,0.00,VWS V14.01,2013-05-17 05:37:00,
2013-05-17 01:42:00,44.0,39.2,30.06,NNW,344,0.0,3.0,83,0.00,,---,0.00,VWS V14.01,2013-05-17 05:42:00,
2013-05-17 01:47:00,44.0,39.2,30.06,NNW,344,0.0,1.0,83,0.00,,---,0.00,VWS V14.01,2013-05-17 05:47:00,
2013-05-17 01:52:00,43.9,39.1,30.06,NNW,344,0.0,1.0,83,0.00,,---,0.00,VWS V14.01,2013-05-17 05:52:00,
2013-05-17 01:57:00,43.8,39.0,30.06,NNW,344,2.0,2.0,83,0.00,,---,0.00,VWS V14.01,2013-05-17 05:57:00,
2013-05-17 02:02:00,43.9,39.1,30.06,NNW,344,2.0,3.0,83,0.00,,---,0.00,VWS V14.01,2013-05-17 06:02:00,
2013-05-17 02:07:00,44.0,39.2,30.06,NNW,344,2.0,3.0,83,0.00,,---,0.00,VWS V14.01,2013-05-17 06:07:00,
2013-05-17 02:13:00,43.9,38.8,30.06,ENE,72,3.0,3.0,82,0.00,,---,0.00,VWS V14.01,2013-05-17 06:13:00,
2013-05-17 02:18:00,43.7,38.9,30.06,ENE,72,2.0,3.0,83,0.00,,---,0.00,VWS V14.01,2013-05-17 06:18:00,
2013-05-17 02:23:00,43.6,38.8,30.07,ENE,67,2.0,3.0,83,0.00,,---,0.00,VWS V14.01,2013-05-17 06:23:00,
2013-05-17 02:28:00,43.4,38.6,30.07,ENE,67,3.0,4.0,83,0.00,,---,0.00,VWS V14.01,2013-05-17 06:28:00,
2013-05-17 02:33:00,43.3,38.5,30.07,ENE,65,3.0,4.0,83,0.00,,---,0.00,VWS V14.01,2013-05-17 06:33:00,
2013-05-17 02:38:00,43.3,38.8,30.07,ENE,67,2.0,3.0,84,0.00,,---,0.00,VWS V14.01,2013-05-17 06:38:00,
2013-05-17 02:43:00,43.3,38.5,30.06,ENE,77,4.0,4.0,83,0.00,,---,0.00,VWS V14.01,2013-05-17 06:43:00,
2013-05-17 02:48:00,43.3,38.8,30.06,ESE,103,3.0,4.0,84,0.00,,---,0.00,VWS V14.01,2013-05-17 06:48:00,
2013-05-17 02:53:00,43.2,38.7,30.07,East,94,2.0,3.0,84,0.00,,---,0.00,VWS V14.01,2013-05-17 06:53:00,
2013-05-17 02:58:00,43.0,38.5,30.06,East,91,3.0,3.0,84,0.00,,---,0.00,VWS V14.01,2013-05-17 06:58:00,
2013-05-17 03:03:00,42.9,38.4,30.07,East,94,2.0,3.0,84,0.00,,---,0.00,VWS V14.01,2013-05-17 07:03:00,
2013-05-17 03:08:00,42.8,38.3,30.07,East,95,2.0,3.0,84,0.00,,---,0.00,VWS V14.01,2013-05-17 07:08:00,
2013-05-17 03:13:00,42.7,38.2,30.07,East,96,3.0,4.0,84,0.00,,---,0.00,VWS V14.01,2013-05-17 07:13:00,
2013-05-17 03:18:00,42.6,38.1,30.07,East,88,4.0,4.0,84,0.00,,---,0.00,VWS V14.01,2013-05-17 07:18:00,
2013-05-17 03:23:00,42.5,38.3,30.07,East,84,2.0,4.0,85,0.00,,---,0.00,VWS V14.01,2013-05-17 07:23:00,
2013-05-17 03:28:00,42.5,38.3,30.07,East,86,0.0,3.0,85,0.00,,---,0.00,VWS V14.01,2013-05-17 07:28:00,
2013-05-17 03:33:00,42.5,38.3,30.07,East,98,0.0,0.0,85,0.00,,---,0.00,VWS V14.01,2013-05-17 07:33:00,
2013-05-17 03:38:00,42.1,37.9,30.08,East,98,2.0,3.0,85,0.00,,---,0.00,VWS V14.01,2013-05-17 07:38:00,
2013-05-17 03:43:00,42.0,37.8,30.08,East,98,2.0,3.0,85,0.00,,---,0.00,VWS V14.01,2013-05-17 07:43:00,
2013-05-17 03:48:00,42.1,38.2,30.08,East,98,2.0,2.0,86,0.00,,---,0.00,VWS V14.01,2013-05-17 07:48:00,
2013-05-17 03:53:00,42.0,38.1,30.08,East,98,0.0,0.0,86,0.00,,---,0.00,VWS V14.01,2013-05-17 07:53:00,
2013-05-17 03:58:00,41.9,38.0,30.08,East,100,0.0,0.0,86,0.00,,---,0.00,VWS V14.01,2013-05-17 07:58:00,
2013-05-17 04:03:00,41.8,37.9,30.08,South,171,0.0,2.0,86,0.00,,---,0.00,VWS V14.01,2013-05-17 08:03:00,
2013-05-17 04:08:00,41.6,37.7,30.08,SSE,163,1.0,2.0,86,0.00,,---,0.00,VWS V14.01,2013-05-17 08:08:00,
2013-05-17 04:13:00,41.6,38.0,30.08,SE,134,0.0,0.0,87,0.00,,---,0.00,VWS V14.01,2013-05-17 08:13:00,
2013-05-17 04:18:00,41.6,38.0,30.08,SE,134,0.0,0.0,87,0.00,,---,0.00,VWS V14.01,2013-05-17 08:18:00,
2013-05-17 04:23:00,41.6,38.0,30.08,SE,134,0.0,1.0,87,0.00,,---,0.00,VWS V14.01,2013-05-17 08:23:00,
2013-05-17 04:28:00,41.5,37.9,30.08,SE,134,0.0,0.0,87,0.00,,---,0.00,VWS V14.01,2013-05-17 08:28:00,
2013-05-17 04:33:00,41.4,37.8,30.08,SE,134,0.0,2.0,87,0.00,,---,0.00,VWS V14.01,2013-05-17 08:33:00,
2013-05-17 04:38:00,41.3,37.7,30.08,SE,134,0.0,0.0,87,0.00,,---,0.00,VWS V14.01,2013-05-17 08:38:00,
2013-05-17 04:43:00,41.3,38.0,30.08,SE,134,2.0,3.0,88,0.00,,---,0.00,VWS V14.01,2013-05-17 08:43:00,
2013-05-17 04:48:00,41.1,37.5,30.08,SE,134,0.0,0.0,87,0.00,,---,0.00,VWS V14.01,2013-05-17 08:48:00,
2013-05-17 04:53:00,41.0,37.7,30.08,SE,134,0.0,0.0,88,0.00,,---,0.00,VWS V14.01,2013-05-17 08:53:00,
2013-05-17 04:59:00,41.0,38.0,30.08,SE,134,2.0,2.0,89,0.00,,---,0.00,VWS V14.01,2013-05-17 08:59:00,
2013-05-17 05:04:00,40.9,37.9,30.08,SE,134,0.0,0.0,89,0.00,,---,0.00,VWS V14.01,2013-05-17 09:04:00,
2013-05-17 05:09:00,41.0,38.0,30.09,SE,134,0.0,0.0,89,0.00,,---,0.00,VWS V14.01,2013-05-17 09:09:00,
2013-05-17 05:14:00,41.0,38.0,30.09,SE,134,0.0,0.0,89,0.00,,---,0.00,VWS V14.01,2013-05-17 09:14:00,
2013-05-17 05:19:00,41.0,38.0,30.09,East,101,3.0,4.0,89,0.00,,---,0.00,VWS V14.01,2013-05-17 09:19:00,
2013-05-17 05:24:00,40.8,38.1,30.09,NE,51,3.0,4.0,90,0.00,,---,0.00,VWS V14.01,2013-05-17 09:24:00,
2013-05-17 05:29:00,40.8,38.1,30.09,NE,56,4.0,5.0,90,0.00,,---,0.00,VWS V14.01,2013-05-17 09:29:00,
2013-05-17 05:34:00,41.1,38.4,30.09,ENE,63,3.0,5.0,90,0.00,,---,0.00,VWS V14.01,2013-05-17 09:34:00,
2013-05-17 05:39:00,41.2,38.8,30.09,ENE,74,1.0,3.0,91,0.00,,---,0.00,VWS V14.01,2013-05-17 09:39:00,
2013-05-17 05:44:00,41.1,38.7,30.09,ENE,74,3.0,3.0,91,0.00,,---,0.00,VWS V14.01,2013-05-17 09:44:00,
2013-05-17 05:49:00,41.1,38.7,30.09,ENE,74,3.0,4.0,91,0.00,,---,0.00,VWS V14.01,2013-05-17 09:49:00,
2013-05-17 05:54:00,41.1,38.7,30.09,ENE,74,2.0,4.0,91,0.00,,---,0.00,VWS V14.01,2013-05-17 09:54:00,
2013-05-17 05:59:00,41.1,38.7,30.09,ENE,74,3.0,4.0,91,0.00,,---,0.00,VWS V14.01,2013-05-17 09:59:00,
2013-05-17 06:04:00,41.3,38.9,30.09,ENE,76,4.0,5.0,91,0.00,,---,0.00,VWS V14.01,2013-05-17 10:04:00,
2013-05-17 06:09:00,41.5,39.1,30.09,ENE,78,3.0,5.0,91,0.00,,---,0.00,VWS V14.01,2013-05-17 10:09:00,
2013-05-17 06:14:00,41.6,39.2,30.09,East,92,3.0,5.0,91,0.00,,---,0.00,VWS V14.01,2013-05-17 10:14:00,
2013-05-17 06:19:00,41.7,39.3,30.09,East,92,3.0,4.0,91,0.00,,---,0.00,VWS V14.01,2013-05-17 10:19:00,
2013-05-17 06:24:00,41.8,39.1,30.10,East,92,3.0,4.0,90,0.00,,---,0.00,VWS V14.01,2013-05-17 10:24:00,
2013-05-17 06:29:00,41.9,39.2,30.10,East,88,2.0,5.0,90,0.00,,---,0.00,VWS V14.01,2013-05-17 10:29:00,
2013-05-17 06:34:00,42.0,39.3,30.10,East,98,3.0,4.0,90,0.00,,---,0.00,VWS V14.01,2013-05-17 10:34:00,
2013-05-17 06:39:00,42.1,39.4,30.10,East,91,2.0,4.0,90,0.00,,---,0.00,VWS V14.01,2013-05-17 10:39:00,
2013-05-17 06:44:00,42.2,39.5,30.10,East,95,3.0,4.0,90,0.00,,---,0.00,VWS V14.01,2013-05-17 10:44:00,
2013-05-17 06:49:00,42.2,39.2,30.10,East,95,3.0,3.0,89,0.00,,---,0.00,VWS V14.01,2013-05-17 10:49:00,
2013-05-17 06:54:00,42.3,39.3,30.10,ESE,104,1.0,3.0,89,0.00,,---,0.00,VWS V14.01,2013-05-17 10:54:00,
2013-05-17 06:59:00,42.4,39.4,30.11,ESE,103,3.0,3.0,89,0.00,,---,0.00,VWS V14.01,2013-05-17 10:59:00,
2013-05-17 07:04:00,42.6,39.6,30.11,East,98,2.0,4.0,89,0.00,,---,0.00,VWS V14.01,2013-05-17 11:04:00,
2013-05-17 07:09:00,42.7,39.7,30.11,East,98,3.0,3.0,89,0.00,,---,0.00,VWS V14.01,2013-05-17 11:09:00,
2013-05-17 07:14:00,42.8,39.8,30.11,East,98,3.0,4.0,89,0.00,,---,0.00,VWS V14.01,2013-05-17 11:14:00,
2013-05-17 07:19:00,42.8,39.8,30.11,East,98,2.0,3.0,89,0.00,,---,0.00,VWS V14.01,2013-05-17 11:19:00,
2013-05-17 07:24:00,43.0,40.0,30.11,ESE,102,2.0,4.0,89,0.00,,---,0.00,VWS V14.01,2013-05-17 11:24:00,
2013-05-17 07:29:00,43.3,40.3,30.11,East,96,2.0,4.0,89,0.00,,---,0.00,VWS V14.01,2013-05-17 11:29:00,
2013-05-17 07:34:00,43.6,40.6,30.11,East,96,3.0,4.0,89,0.00,,---,0.00,VWS V14.01,2013-05-17 11:34:00,
2013-05-17 07:39:00,43.8,40.5,30.11,East,94,3.0,4.0,88,0.00,,---,0.00,VWS V14.01,2013-05-17 11:39:00,
2013-05-17 07:44:00,44.1,40.8,30.12,East,94,4.0,4.0,88,0.00,,---,0.00,VWS V14.01,2013-05-17 11:44:00,
2013-05-17 07:49:00,44.2,40.6,30.12,East,94,1.0,3.0,87,0.00,,---,0.00,VWS V14.01,2013-05-17 11:49:00,
2013-05-17 07:54:00,44.3,40.7,30.12,East,94,1.0,2.0,87,0.00,,---,0.00,VWS V14.01,2013-05-17 11:54:00,
2013-05-17 07:59:00,44.7,41.1,30.12,East,94,2.0,3.0,87,0.00,,---,0.00,VWS V14.01,2013-05-17 11:59:00,
2013-05-17 08:04:00,45.0,41.4,30.12,East,94,2.0,3.0,87,0.00,,---,0.00,VWS V14.01,2013-05-17 12:04:00,
2013-05-17 08:09:00,45.2,41.6,30.12,East,100,2.0,3.0,87,0.00,,---,0.00,VWS V14.01,2013-05-17 12:09:00,
2013-05-17 08:14:00,45.6,41.7,30.13,East,100,0.0,3.0,86,0.00,,---,0.00,VWS V14.01,2013-05-17 12:14:00,
2013-05-17 08:19:00,46.0,42.0,30.13,East,101,0.0,3.0,86,0.00,,---,0.00,VWS V14.01,2013-05-17 12:19:00,
2013-05-17 08:24:00,46.3,42.0,30.14,East,99,0.0,2.0,85,0.00,,---,0.00,VWS V14.01,2013-05-17 12:24:00,
2013-05-17 08:29:00,46.7,42.4,30.14,East,100,0.0,0.0,85,0.00,,---,0.00,VWS V14.01,2013-05-17 12:29:00,
2013-05-17 08:34:00,47.1,42.8,30.14,East,101,0.0,0.0,85,0.00,,---,0.00,VWS V14.01,2013-05-17 12:34:00,
2013-05-17 08:39:00,47.5,43.2,30.14,ESE,102,0.0,0.0,85,0.00,,---,0.00,VWS V14.01,2013-05-17 12:39:00,
2013-05-17 08:44:00,47.8,43.2,30.14,ESE,102,0.0,0.0,84,0.00,,---,0.00,VWS V14.01,2013-05-17 12:44:00,
2013-05-17 08:49:00,48.2,43.3,30.14,ESE,103,0.0,1.0,83,0.00,,---,0.00,VWS V14.01,2013-05-17 12:49:00,
2013-05-17 08:54:00,48.6,43.4,30.14,ESE,102,0.0,1.0,82,0.00,,---,0.00,VWS V14.01,2013-05-17 12:54:00,
2013-05-17 08:59:00,48.9,43.3,30.14,ESE,105,1.0,3.0,81,0.00,,---,0.00,VWS V14.01,2013-05-17 12:59:00,
2013-05-17 09:04:00,49.2,43.3,30.15,ESE,105,0.0,3.0,80,0.00,,---,0.00,VWS V14.01,2013-05-17 13:04:00,
2013-05-17 09:09:00,49.3,43.4,30.15,ESE,105,0.0,2.0,80,0.00,,---,0.00,VWS V14.01,2013-05-17 13:09:00,
2013-05-17 09:15:00,49.5,43.6,30.15,ESE,106,0.0,0.0,80,0.00,,---,0.00,VWS V14.01,2013-05-17 13:15:00,
2013-05-17 09:20:00,49.7,43.8,30.15,ESE,105,0.0,0.0,80,0.00,,---,0.00,VWS V14.01,2013-05-17 13:20:00,
2013-05-17 09:25:00,49.9,43.7,30.15,ESE,105,0.0,2.0,79,0.00,,---,0.00,VWS V14.01,2013-05-17 13:25:00,
2013-05-17 09:30:00,50.1,43.5,30.15,ESE,107,0.0,3.0,78,0.00,,---,0.00,VWS V14.01,2013-05-17 13:30:00,
2013-05-17 09:35:00,50.4,43.5,30.16,ESE,109,0.0,0.0,77,0.00,,---,0.00,VWS V14.01,2013-05-17 13:35:00,
2013-05-17 09:40:00,50.8,43.9,30.16,ESE,109,0.0,1.0,77,0.00,,---,0.00,VWS V14.01,2013-05-17 13:40:00,
2013-05-17 09:45:00,51.2,44.2,30.16,ESE,109,0.0,0.0,77,0.00,,---,0.00,VWS V14.01,2013-05-17 13:45:00,
2013-05-17 09:50:00,51.5,43.8,30.16,ESE,109,0.0,1.0,75,0.00,,---,0.00,VWS V14.01,2013-05-17 13:50:00,
2013-05-17 09:55:00,51.9,44.6,30.17,ESE,109,0.0,0.0,76,0.00,,---,0.00,VWS V14.01,2013-05-17 13:55:00,
2013-05-17 10:00:00,52.1,44.4,30.17,ESE,109,0.0,2.0,75,0.00,,---,0.00,VWS V14.01,2013-05-17 14:00:00,
2013-05-17 10:05:00,52.4,44.4,30.17,ESE,109,0.0,0.0,74,0.00,,---,0.00,VWS V14.01,2013-05-17 14:05:00,
2013-05-17 10:10:00,52.8,45.1,30.17,ESE,109,0.0,0.0,75,0.00,,---,0.00,VWS V14.01,2013-05-17 14:10:00,
2013-05-17 10:15:00,53.1,44.7,30.17,ESE,109,0.0,1.0,73,0.00,,---,0.00,VWS V14.01,2013-05-17 14:15:00,
2013-05-17 10:20:00,53.3,44.9,30.17,ESE,109,0.0,0.0,73,0.00,,---,0.00,VWS V14.01,2013-05-17 14:20:00,
2013-05-17 10:25:00,53.6,45.2,30.17,ESE,107,0.0,1.0,73,0.00,,---,0.00,VWS V14.01,2013-05-17 14:25:00,
2013-05-17 10:30:00,54.0,45.2,30.17,ESE,109,0.0,0.0,72,0.00,,---,0.00,VWS V14.01,2013-05-17 14:30:00,
2013-05-17 10:35:00,54.6,45.4,30.17,ESE,109,0.0,2.0,71,0.00,,---,0.00,VWS V14.01,2013-05-17 14:35:00,
2013-05-17 10:40:00,55.3,45.3,30.17,ESE,121,2.0,4.0,69,0.00,,---,0.00,VWS V14.01,2013-05-17 14:40:00,
2013-05-17 10:45:00,55.8,45.0,30.17,SSE,149,1.0,4.0,67,0.00,,---,0.00,VWS V14.01,2013-05-17 14:45:00,
2013-05-17 10:50:00,56.6,46.2,30.17,ESE,108,0.0,4.0,68,0.00,,---,0.00,VWS V14.01,2013-05-17 14:50:00,
2013-05-17 10:55:00,57.7,45.6,30.17,East,101,4.0,5.0,64,0.00,,---,0.00,VWS V14.01,2013-05-17 14:55:00,
2013-05-17 11:00:00,58.5,45.5,30.17,ESE,106,1.0,7.0,62,0.00,,---,0.00,VWS V14.01,2013-05-17 15:00:00,
2013-05-17 11:05:00,59.0,46.0,30.17,ESE,117,3.0,6.0,62,0.00,,---,0.00,VWS V14.01,2013-05-17 15:05:00,
2013-05-17 11:10:00,59.3,45.4,30.17,ESE,119,6.0,6.0,60,0.00,,---,0.00,VWS V14.01,2013-05-17 15:10:00,
2013-05-17 11:15:00,59.8,45.0,30.17,SSE,163,3.0,7.0,58,0.00,,---,0.00,VWS V14.01,2013-05-17 15:15:00,
2013-05-17 11:20:00,60.4,45.1,30.17,ESE,114,4.0,7.0,57,0.00,,---,0.00,VWS V14.01,2013-05-17 15:20:00,
2013-05-17 11:25:00,60.8,46.0,30.16,ESE,109,7.0,10.0,58,0.00,,---,0.00,VWS V14.01,2013-05-17 15:25:00,
2013-05-17 11:30:00,61.2,45.9,30.17,SSE,160,2.0,10.0,57,0.00,,---,0.00,VWS V14.01,2013-05-17 15:30:00,
2013-05-17 11:35:00,61.3,46.0,30.16,SE,146,6.0,9.0,57,0.00,,---,0.00,VWS V14.01,2013-05-17 15:35:00,
2013-05-17 11:40:00,61.7,45.9,30.16,SE,141,6.0,10.0,56,0.00,,---,0.00,VWS V14.01,2013-05-17 15:40:00,
2013-05-17 11:45:00,62.0,45.7,30.16,ESE,103,10.0,10.0,55,0.00,,---,0.00,VWS V14.01,2013-05-17 15:45:00,
2013-05-17 11:50:00,62.3,46.4,30.16,SE,129,2.0,10.0,56,0.00,,---,0.00,VWS V14.01,2013-05-17 15:50:00,
2013-05-17 11:55:00,62.1,44.8,30.16,East,96,7.0,14.0,53,0.00,,---,0.00,VWS V14.01,2013-05-17 15:55:00,
2013-05-17 12:00:00,61.8,44.5,30.16,SSE,147,4.0,12.0,53,0.00,,---,0.00,VWS V14.01,2013-05-17 16:00:00,
2013-05-17 12:05:00,62.2,44.9,30.16,ESE,115,9.0,9.0,53,0.00,,---,0.00,VWS V14.01,2013-05-17 16:05:00,
2013-05-17 12:10:00,62.7,44.8,30.16,SSE,168,2.0,3.0,52,0.00,,---,0.00,VWS V14.01,2013-05-17 16:10:00,
2013-05-17 12:15:00,63.1,45.7,30.16,SE,125,1.0,9.0,53,0.00,,---,0.00,VWS V14.01,2013-05-17 16:15:00,
2013-05-17 12:20:00,63.6,45.7,30.15,SE,140,2.0,2.0,52,0.00,,---,0.00,VWS V14.01,2013-05-17 16:20:00,
2013-05-17 12:25:00,63.8,45.9,30.16,ESE,114,8.0,8.0,52,0.00,,---,0.00,VWS V14.01,2013-05-17 16:25:00,
2013-05-17 12:30:00,63.4,45.0,30.15,SSW,200,0.0,9.0,51,0.00,,---,0.00,VWS V14.01,2013-05-17 16:30:00,
2013-05-17 12:35:00,63.2,46.3,30.15,SE,138,5.0,7.0,54,0.00,,---,0.00,VWS V14.01,2013-05-17 16:35:00,
2013-05-17 12:40:00,62.8,44.9,30.15,SE,130,3.0,4.0,52,0.00,,---,0.00,VWS V14.01,2013-05-17 16:40:00,
2013-05-17 12:45:00,62.5,44.2,30.15,East,95,6.0,6.0,51,0.00,,---,0.00,VWS V14.01,2013-05-17 16:45:00,
2013-05-17 12:50:00,62.3,44.5,30.15,SSE,159,1.0,9.0,52,0.00,,---,0.00,VWS V14.01,2013-05-17 16:50:00,
2013-05-17 12:55:00,62.4,45.1,30.15,ESE,115,2.0,10.0,53,0.00,,---,0.00,VWS V14.01,2013-05-17 16:55:00,
2013-05-17 13:00:00,62.6,45.7,30.15,ESE,122,1.0,1.0,54,0.00,,---,0.00,VWS V14.01,2013-05-17 17:00:00,
2013-05-17 13:05:00,62.9,45.0,30.15,SE,127,0.0,1.0,52,0.00,,---,0.00,VWS V14.01,2013-05-17 17:05:00,
2013-05-17 13:10:00,63.1,45.7,30.15,ESE,119,3.0,5.0,53,0.00,,---,0.00,VWS V14.01,2013-05-17 17:10:00,
2013-05-17 13:15:00,63.4,46.0,30.15,ESE,119,2.0,5.0,53,0.00,,---,0.00,VWS V14.01,2013-05-17 17:15:00,
2013-05-17 13:20:00,63.4,45.5,30.15,ESE,118,4.0,6.0,52,0.00,,---,0.00,VWS V14.01,2013-05-17 17:20:00,
2013-05-17 13:25:00,63.4,46.0,30.15,ESE,109,5.0,5.0,53,0.00,,---,0.00,VWS V14.01,2013-05-17 17:25:00,
2013-05-17 13:30:00,63.7,45.2,30.15,East,87,6.0,7.0,51,0.00,,---,0.00,VWS V14.01,2013-05-17 17:30:00,
2013-05-17 13:35:00,63.6,45.2,30.15,East,84,3.0,4.0,51,0.00,,---,0.00,VWS V14.01,2013-05-17 17:35:00,
2013-05-17 13:40:00,63.7,45.2,30.14,East,100,4.0,5.0,51,0.00,,---,0.00,VWS V14.01,2013-05-17 17:40:00,
2013-05-17 13:45:00,63.9,45.4,30.14,SE,142,2.0,2.0,51,0.00,,---,0.00,VWS V14.01,2013-05-17 17:45:00,
2013-05-17 13:50:00,64.3,45.3,30.14,ESE,119,0.0,0.0,50,0.00,,---,0.00,VWS V14.01,2013-05-17 17:50:00,
2013-05-17 13:55:00,64.6,45.0,30.14,SE,130,3.0,5.0,49,0.00,,---,0.00,VWS V14.01,2013-05-17 17:55:00,
2013-05-17 14:00:00,64.4,45.4,30.14,East,92,2.0,6.0,50,0.00,,---,0.00,VWS V14.01,2013-05-17 18:00:00,
2013-05-17 14:05:00,64.0,44.5,30.15,ENE,68,0.0,1.0,49,0.00,,---,0.00,VWS V14.01,2013-05-17 18:05:00,
2013-05-17 14:10:00,64.0,46.0,30.15,SSE,163,3.0,3.0,52,0.00,,---,0.00,VWS V14.01,2013-05-17 18:10:00,
2013-05-17 14:15:00,64.4,45.4,30.15,ESE,122,3.0,3.0,50,0.00,,---,0.00,VWS V14.01,2013-05-17 18:15:00,
2013-05-17 14:20:00,64.8,44.7,30.15,SE,137,1.0,1.0,48,0.00,,---,0.00,VWS V14.01,2013-05-17 18:20:00,
2013-05-17 14:25:00,64.8,44.1,30.15,ESE,121,1.0,3.0,47,0.00,,---,0.00,VWS V14.01,2013-05-17 18:25:00,
2013-05-17 14:30:00,64.2,45.2,30.15,ENE,69,0.0,0.0,50,0.00,,---,0.00,VWS V14.01,2013-05-17 18:30:00,
2013-05-17 14:35:00,64.6,48.6,30.15,West,277,10.0,10.0,56,0.00,,---,0.00,VWS V14.01,2013-05-17 18:35:00,
2013-05-17 14:40:00,63.9,47.4,30.15,WSW,249,10.0,10.0,55,0.00,,---,0.00,VWS V14.01,2013-05-17 18:40:00,
2013-05-17 14:45:00,62.6,46.2,30.15,WSW,254,8.0,8.0,55,0.00,,---,0.00,VWS V14.01,2013-05-17 18:45:00,
2013-05-17 14:50:00,62.5,46.6,30.15,West,273,4.0,5.0,56,0.00,,---,0.00,VWS V14.01,2013-05-17 18:50:00,
2013-05-17 14:55:00,63.1,47.6,30.14,West,271,2.0,2.0,57,0.00,,---,0.00,VWS V14.01,2013-05-17 18:55:00,
2013-05-17 15:00:00,63.2,46.8,30.15,North,360,2.0,2.0,55,0.00,,---,0.00,VWS V14.01,2013-05-17 19:00:00,
2013-05-17 15:05:00,63.5,46.1,30.14,West,272,3.0,4.0,53,0.00,,---,0.00,VWS V14.01,2013-05-17 19:05:00,
2013-05-17 15:10:00,63.5,46.1,30.14,WSW,246,1.0,1.0,53,0.00,,---,0.00,VWS V14.01,2013-05-17 19:10:00,
2013-05-17 15:15:00,63.6,45.7,30.14,WSW,250,0.0,0.0,52,0.00,,---,0.00,VWS V14.01,2013-05-17 19:15:00,
2013-05-17 15:20:00,63.7,46.3,30.14,WSW,244,0.0,0.0,53,0.00,,---,0.00,VWS V14.01,2013-05-17 19:20:00,
2013-05-17 15:25:00,63.7,46.3,30.14,WNW,284,2.0,2.0,53,0.00,,---,0.00,VWS V14.01,2013-05-17 19:25:00,
2013-05-17 15:30:00,63.7,45.8,30.14,WSW,251,2.0,3.0,52,0.00,,---,0.00,VWS V14.01,2013-05-17 19:30:00,
2013-05-17 15:35:00,64.1,47.1,30.14,WSW,255,0.0,0.0,54,0.00,,---,0.00,VWS V14.01,2013-05-17 19:35:00,
2013-05-17 15:40:00,64.4,46.9,30.14,North,360,5.0,6.0,53,0.00,,---,0.00,VWS V14.01,2013-05-17 19:40:00,
2013-05-17 15:45:00,64.4,46.9,30.14,West,279,0.0,0.0,53,0.00,,---,0.00,VWS V14.01,2013-05-17 19:45:00,
2013-05-17 15:50:00,64.6,48.6,30.14,NNE,21,3.0,3.0,56,0.00,,---,0.00,VWS V14.01,2013-05-17 19:50:00,
2013-05-17 15:55:00,63.3,48.7,30.14,North,10,4.0,5.0,59,0.00,,---,0.00,VWS V14.01,2013-05-17 19:55:00,
2013-05-17 16:00:00,60.6,47.1,30.14,NNE,21,11.0,11.0,61,0.00,,---,0.00,VWS V14.01,2013-05-17 20:00:00,
2013-05-17 16:05:00,60.0,45.7,30.15,North,9,0.0,1.0,59,0.00,,---,0.00,VWS V14.01,2013-05-17 20:05:00,
2013-05-17 16:10:00,59.8,45.9,30.14,North,5,1.0,3.0,60,0.00,,---,0.00,VWS V14.01,2013-05-17 20:10:00,
2013-05-17 16:15:00,60.0,46.1,30.14,North,360,5.0,5.0,60,0.00,,---,0.00,VWS V14.01,2013-05-17 20:15:00,
2013-05-17 16:20:00,59.2,45.8,30.14,North,11,1.0,2.0,61,0.00,,---,0.00,VWS V14.01,2013-05-17 20:20:00,
2013-05-17 16:25:00,59.0,45.6,30.14,NNE,12,3.0,4.0,61,0.00,,---,0.00,VWS V14.01,2013-05-17 20:25:00,
2013-05-17 16:30:00,59.0,45.6,30.14,North,10,0.0,0.0,61,0.00,,---,0.00,VWS V14.01,2013-05-17 20:30:00,
2013-05-17 16:35:00,59.7,45.4,30.14,NNW,341,0.0,0.0,59,0.00,,---,0.00,VWS V14.01,2013-05-17 20:35:00,
2013-05-17 16:41:00,60.0,46.1,30.14,North,360,2.0,2.0,60,0.00,,---,0.00,VWS V14.01,2013-05-17 20:41:00,
2013-05-17 16:46:00,59.9,45.5,30.14,North,9,5.0,6.0,59,0.00,,---,0.00,VWS V14.01,2013-05-17 20:46:00,
2013-05-17 16:51:00,59.6,46.2,30.13,NE,56,0.0,0.0,61,0.00,,---,0.00,VWS V14.01,2013-05-17 20:51:00,
2013-05-17 16:56:00,59.5,45.6,30.13,North,10,5.0,7.0,60,0.00,,---,0.00,VWS V14.01,2013-05-17 20:56:00,
2013-05-17 17:01:00,59.1,45.2,30.13,North,360,2.0,2.0,60,0.00,,---,0.00,VWS V14.01,2013-05-17 21:01:00,
2013-05-17 17:06:00,59.1,44.8,30.13,NW,311,0.0,5.0,59,0.00,,---,0.00,VWS V14.01,2013-05-17 21:06:00,
2013-05-17 17:11:00,59.0,44.3,30.13,North,360,4.0,5.0,58,0.00,,---,0.00,VWS V14.01,2013-05-17 21:11:00,
2013-05-17 17:16:00,59.0,44.3,30.13,WNW,300,0.0,1.0,58,0.00,,---,0.00,VWS V14.01,2013-05-17 21:16:00,
2013-05-17 17:21:00,59.0,44.7,30.13,NNE,21,6.0,6.0,59,0.00,,---,0.00,VWS V14.01,2013-05-17 21:21:00,
2013-05-17 17:26:00,58.5,44.2,30.13,NNW,344,0.0,1.0,59,0.00,,---,0.00,VWS V14.01,2013-05-17 21:26:00,
2013-05-17 17:31:00,58.6,45.2,30.12,NNE,15,0.0,1.0,61,0.00,,---,0.00,VWS V14.01,2013-05-17 21:31:00,
2013-05-17 17:36:00,58.8,44.5,30.12,NNE,18,3.0,4.0,59,0.00,,---,0.00,VWS V14.01,2013-05-17 21:36:00,
2013-05-17 17:41:00,58.7,44.9,30.12,NW,315,0.0,3.0,60,0.00,,---,0.00,VWS V14.01,2013-05-17 21:41:00,
2013-05-17 17:46:00,58.8,44.5,30.12,North,360,2.0,4.0,59,0.00,,---,0.00,VWS V14.01,2013-05-17 21:46:00,
2013-05-17 17:51:00,58.7,45.3,30.12,WNW,295,0.0,4.0,61,0.00,,---,0.00,VWS V14.01,2013-05-17 21:51:00,
2013-05-17 17:56:00,59.0,45.2,30.12,NNE,19,0.0,2.0,60,0.00,,---,0.00,VWS V14.01,2013-05-17 21:56:00,
2013-05-17 18:01:00,59.0,45.2,30.12,NNE,17,2.0,3.0,60,0.00,,---,0.00,VWS V14.01,2013-05-17 22:01:00,
2013-05-17 18:06:00,59.1,45.2,30.12,North,360,1.0,3.0,60,0.00,,---,0.00,VWS V14.01,2013-05-17 22:06:00,
2013-05-17 18:11:00,59.5,46.1,30.12,NNE,13,0.0,0.0,61,0.00,,---,0.00,VWS V14.01,2013-05-17 22:11:00,
2013-05-17 18:16:00,59.7,45.8,30.11,North,360,2.0,3.0,60,0.00,,---,0.00,VWS V14.01,2013-05-17 22:16:00,
2013-05-17 18:21:00,60.0,45.2,30.11,NNE,12,0.0,6.0,58,0.00,,---,0.00,VWS V14.01,2013-05-17 22:21:00,
2013-05-17 18:26:00,60.0,45.2,30.11,North,11,3.0,3.0,58,0.00,,---,0.00,VWS V14.01,2013-05-17 22:26:00,
2013-05-17 18:31:00,60.0,45.2,30.10,North,11,6.0,7.0,58,0.00,,---,0.00,VWS V14.01,2013-05-17 22:31:00,
2013-05-17 18:36:00,60.4,45.6,30.10,NNE,19,0.0,1.0,58,0.00,,---,0.00,VWS V14.01,2013-05-17 22:36:00,
2013-05-17 18:41:00,60.5,45.7,30.10,NNE,19,1.0,3.0,58,0.00,,---,0.00,VWS V14.01,2013-05-17 22:41:00,
2013-05-17 18:46:00,60.5,45.2,30.10,North,360,0.0,1.0,57,0.00,,---,0.00,VWS V14.01,2013-05-17 22:46:00,
2013-05-17 18:51:00,60.5,45.2,30.10,North,5,0.0,3.0,57,0.00,,---,0.00,VWS V14.01,2013-05-17 22:51:00,
2013-05-17 18:56:00,60.5,45.7,30.10,North,9,2.0,3.0,58,0.00,,---,0.00,VWS V14.01,2013-05-17 22:56:00,
2013-05-17 19:01:00,60.5,45.2,30.10,NNW,348,1.0,2.0,57,0.00,,---,0.00,VWS V14.01,2013-05-17 23:01:00,
2013-05-17 19:06:00,60.5,45.2,30.09,NNW,344,0.0,3.0,57,0.00,,---,0.00,VWS V14.01,2013-05-17 23:06:00,
2013-05-17 19:11:00,60.4,45.6,30.09,North,10,7.0,7.0,58,0.00,,---,0.00,VWS V14.01,2013-05-17 23:11:00,
2013-05-17 19:16:00,60.3,45.5,30.09,North,5,1.0,2.0,58,0.00,,---,0.00,VWS V14.01,2013-05-17 23:16:00,
2013-05-17 19:21:00,60.3,45.0,30.09,North,9,1.0,2.0,57,0.00,,---,0.00,VWS V14.01,2013-05-17 23:21:00,
2013-05-17 19:26:00,60.3,45.9,30.09,NNE,14,5.0,5.0,59,0.00,,---,0.00,VWS V14.01,2013-05-17 23:26:00,
2013-05-17 19:31:00,60.3,45.9,30.09,North,11,9.0,10.0,59,0.00,,---,0.00,VWS V14.01,2013-05-17 23:31:00,
2013-05-17 19:36:00,60.3,45.5,30.08,NNE,15,5.0,6.0,58,0.00,,---,0.00,VWS V14.01,2013-05-17 23:36:00,
2013-05-17 19:41:00,60.0,45.7,30.08,NNE,13,5.0,7.0,59,0.00,,---,0.00,VWS V14.01,2013-05-17 23:41:00,
2013-05-17 19:46:00,59.7,45.4,30.08,NNE,15,7.0,7.0,59,0.00,,---,0.00,VWS V14.01,2013-05-17 23:46:00,
2013-05-17 19:51:00,59.6,45.7,30.08,NNE,14,3.0,4.0,60,0.00,,---,0.00,VWS V14.01,2013-05-17 23:51:00,
2013-05-17 19:56:00,59.5,45.6,30.09,NNE,14,4.0,4.0,60,0.00,,---,0.00,VWS V14.01,2013-05-17 23:56:00,
2013-05-17 20:01:00,59.4,46.0,30.09,NNE,15,1.0,4.0,61,0.00,,---,0.00,VWS V14.01,2013-05-18 00:01:00,
2013-05-17 20:06:00,59.4,46.0,30.09,NNE,15,3.0,4.0,61,0.00,,---,0.00,VWS V14.01,2013-05-18 00:06:00,
2013-05-17 20:11:00,59.4,45.5,30.09,NNE,14,4.0,4.0,60,0.00,,---,0.00,VWS V14.01,2013-05-18 00:11:00,
2013-05-17 20:16:00,59.4,46.0,30.10,NNE,14,0.0,1.0,61,0.00,,---,0.00,VWS V14.01,2013-05-18 00:16:00,
2013-05-17 20:21:00,59.4,46.0,30.10,NNE,15,0.0,0.0,61,0.00,,---,0.00,VWS V14.01,2013-05-18 00:21:00,
2013-05-17 20:26:00,59.3,45.4,30.10,NNE,15,0.0,0.0,60,0.00,,---,0.00,VWS V14.01,2013-05-18 00:26:00,
2013-05-17 20:31:00,59.5,45.6,30.10,NNE,15,0.0,0.0,60,0.00,,---,0.00,VWS V14.01,2013-05-18 00:31:00,
2013-05-17 20:36:00,59.9,46.4,30.11,NNE,15,0.0,0.0,61,0.00,,---,0.00,VWS V14.01,2013-05-18 00:36:00,
2013-05-17 20:41:00,60.0,47.0,30.11,North,11,0.0,0.0,62,0.00,,---,0.00,VWS V14.01,2013-05-18 00:41:00,
2013-05-17 20:46:00,59.8,46.8,30.11,North,10,0.0,0.0,62,0.00,,---,0.00,VWS V14.01,2013-05-18 00:46:00,
2013-05-17 20:51:00,59.5,46.5,30.11,North,10,0.0,0.0,62,0.00,,---,0.00,VWS V14.01,2013-05-18 00:51:00,
2013-05-17 20:56:00,59.0,45.6,30.11,North,11,0.0,1.0,61,0.00,,---,0.00,VWS V14.01,2013-05-18 00:56:00,
2013-05-17 21:01:00,58.9,45.9,30.11,North,11,0.0,0.0,62,0.00,,---,0.00,VWS V14.01,2013-05-18 01:01:00,
2013-05-17 21:06:00,58.4,45.5,30.11,North,11,0.0,0.0,62,0.00,,---,0.00,VWS V14.01,2013-05-18 01:06:00,
2013-05-17 21:12:00,58.1,45.2,30.11,North,11,0.0,0.0,62,0.00,,---,0.00,VWS V14.01,2013-05-18 01:12:00,
2013-05-17 21:17:00,57.8,45.7,30.11,North,10,0.0,0.0,64,0.00,,---,0.00,VWS V14.01,2013-05-18 01:17:00,
2013-05-17 21:22:00,57.5,45.4,30.11,NNE,13,0.0,1.0,64,0.00,,---,0.00,VWS V14.01,2013-05-18 01:22:00,
2013-05-17 21:27:00,57.2,45.2,30.12,NNE,21,0.0,0.0,64,0.00,,---,0.00,VWS V14.01,2013-05-18 01:27:00,
2013-05-17 21:32:00,56.9,44.9,30.12,NNE,32,0.0,2.0,64,0.00,,---,0.00,VWS V14.01,2013-05-18 01:32:00,
2013-05-17 21:37:00,56.8,45.2,30.12,NNE,32,2.0,2.0,65,0.00,,---,0.00,VWS V14.01,2013-05-18 01:37:00,
2013-05-17 21:42:00,56.7,45.1,30.12,ESE,110,1.0,3.0,65,0.00,,---,0.00,VWS V14.01,2013-05-18 01:42:00,
2013-05-17 21:47:00,56.7,45.1,30.12,ESE,113,2.0,3.0,65,0.00,,---,0.00,VWS V14.01,2013-05-18 01:47:00,
2013-05-17 21:52:00,56.7,44.7,30.13,ESE,113,3.0,4.0,64,0.00,,---,0.00,VWS V14.01,2013-05-18 01:52:00,
2013-05-17 21:57:00,56.7,44.7,30.13,ESE,115,4.0,4.0,64,0.00,,---,0.00,VWS V14.01,2013-05-18 01:57:00,
2013-05-17 22:02:00,56.6,44.2,30.12,ESE,111,3.0,4.0,63,0.00,,---,0.00,VWS V14.01,2013-05-18 02:02:00,
2013-05-17 22:07:00,56.5,44.1,30.12,ESE,111,3.0,4.0,63,0.00,,---,0.00,VWS V14.01,2013-05-18 02:07:00,
2013-05-17 22:12:00,56.4,43.6,30.13,ESE,106,3.0,5.0,62,0.00,,---,0.00,VWS V14.01,2013-05-18 02:12:00,
2013-05-17 22:17:00,56.2,43.4,30.13,ESE,107,3.0,5.0,62,0.00,,---,0.00,VWS V14.01,2013-05-18 02:17:00,
2013-05-17 22:22:00,56.1,43.3,30.13,ESE,114,3.0,4.0,62,0.00,,---,0.00,VWS V14.01,2013-05-18 02:22:00,
2013-05-17 22:27:00,56.1,42.8,30.13,ESE,117,1.0,5.0,61,0.00,,---,0.00,VWS V14.01,2013-05-18 02:27:00,
2013-05-17 22:32:00,56.1,42.8,30.13,ESE,112,3.0,5.0,61,0.00,,---,0.00,VWS V14.01,2013-05-18 02:32:00,
2013-05-17 22:37:00,56.2,43.0,30.14,ESE,114,1.0,4.0,61,0.00,,---,0.00,VWS V14.01,2013-05-18 02:37:00,
2013-05-17 22:42:00,56.3,43.0,30.14,ESE,121,3.0,3.0,61,0.00,,---,0.00,VWS V14.01,2013-05-18 02:42:00,
2013-05-17 22:47:00,56.3,43.0,30.14,ESE,119,1.0,2.0,61,0.00,,---,0.00,VWS V14.01,2013-05-18 02:47:00,
2013-05-17 22:52:00,56.4,42.7,30.14,ESE,117,0.0,1.0,60,0.00,,---,0.00,VWS V14.01,2013-05-18 02:52:00,
2013-05-17 22:57:00,56.4,43.1,30.14,ESE,117,0.0,1.0,61,0.00,,---,0.00,VWS V14.01,2013-05-18 02:57:00,
2013-05-17 23:02:00,56.4,42.7,30.14,ESE,117,0.0,1.0,60,0.00,,---,0.00,VWS V14.01,2013-05-18 03:02:00,
2013-05-17 23:07:00,56.4,43.1,30.14,ESE,110,0.0,2.0,61,0.00,,---,0.00,VWS V14.01,2013-05-18 03:07:00,
2013-05-17 23:12:00,56.3,43.0,30.14,ESE,107,0.0,3.0,61,0.00,,---,0.00,VWS V14.01,2013-05-18 03:12:00,
2013-05-17 23:17:00,56.2,43.0,30.14,ESE,107,0.0,0.0,61,0.00,,---,0.00,VWS V14.01,2013-05-18 03:17:00,
2013-05-17 23:22:00,56.2,43.4,30.14,ESE,118,0.0,2.0,62,0.00,,---,0.00,VWS V14.01,2013-05-18 03:22:00,
2013-05-17 23:27:00,56.0,44.0,30.14,SE,139,0.0,2.0,64,0.00,,---,0.00,VWS V14.01,2013-05-18 03:27:00,
2013-05-17 23:32:00,55.7,44.1,30.14,SE,139,0.0,2.0,65,0.00,,---,0.00,VWS V14.01,2013-05-18 03:32:00,
2013-05-17 23:37:00,55.4,44.2,30.14,SE,139,0.0,0.0,66,0.00,,---,0.00,VWS V14.01,2013-05-18 03:37:00,
2013-05-17 23:42:00,55.3,43.8,30.14,SE,138,0.0,3.0,65,0.00,,---,0.00,VWS V14.01,2013-05-18 03:42:00,
2013-05-17 23:47:00,55.3,43.3,30.14,SE,137,2.0,4.0,64,0.00,,---,0.00,VWS V14.01,2013-05-18 03:47:00,
2013-05-17 23:52:00,55.3,42.9,30.14,SE,133,0.0,3.0,63,0.00,,---,0.00,VWS V14.01,2013-05-18 03:52:00,
2013-05-17 23:57:00,55.3,42.5,30.15,SE,134,2.0,2.0,62,0.00,,---,0.00,VWS V14.01,2013-05-18 03:57:00,